Armonk, New York
Current Conditions -  °F | °C
As of 10:56 AM on Sunday 21 Dec 2014 (Local Time) from KHPN Reporting Station
Haze Haze  
Wind Chill: -5°   Ceiling: 1400
Heat Index: -1°   Visibility: 6mi
Dew Point: -3°   Wind: 8mph
Humidity: 82%   Direction: 330°NNW
Pressure: 30.29"   Gusts: NA
Location:  41.13°N, 73.71°W
Report Text: KHPN 211556Z 33007KT 6SM HZ OVC014 M01/M03 A3029 RMK AO2 SNE51 SLP265 P0000 T10061033
Loading
Personal Weather Stations






























Interactive Weather Map New forecast layout! Learn more

10-Day Weather Forecast

Advertisements
Track Severe Weather on mobile